< < Back
Terminal Aerodrome Forecast


Current Version              Previous Versions:   1  2  3  4  5  6  7  8  9  

Terminal Aerodrome Forecast

650
FTUS42 KJAX 201100
TAFSSI
TAF
KSSI 201120Z 2012/2112 35010G18KT P6SM -DZ SCT010 BKN015 OVC020
      TEMPO 2012/2016 OVC006
     FM201600 01016G28KT P6SM SCT010 BKN015
     FM210000 02011KT P6SM SCT015 BKN025
     FM210800 02010KT P6SM SCT010 BKN020=



Latest METAR

061
SAUS70 KWBC 202100
MTRSSI
METAR KSSI 202053Z AUTO 30006KT 10SM BKN019 OVC036 17/13 A3008 RMK AO2
SLP185 P0000 60000 T01670128 56014 PWINO $


USA.gov is the U.S. government's official web portal to all federal, state and local government web resources and services.